sensor_id;sensor_type;location;lat;lon;timestamp;P1;durP1;ratioP1;P2;durP2;ratioP2
14096;SDS011;7125;48.106;11.544;2023-06-10T00:01:36;8.85;;;6.47;;
14096;SDS011;7125;48.106;11.544;2023-06-10T00:04:05;8.80;;;8.00;;
14096;SDS011;7125;48.106;11.544;2023-06-10T00:06:32;8.20;;;7.50;;
14096;SDS011;7125;48.106;11.544;2023-06-10T00:09:01;8.30;;;7.60;;
14096;SDS011;7125;48.106;11.544;2023-06-10T00:11:30;9.38;;;8.43;;
14096;SDS011;7125;48.106;11.544;2023-06-10T00:13:58;8.52;;;7.60;;
14096;SDS011;7125;48.106;11.544;2023-06-10T00:16:25;6.90;;;6.40;;
14096;SDS011;7125;48.106;11.544;2023-06-10T00:18:52;8.40;;;7.60;;
14096;SDS011;7125;48.106;11.544;2023-06-10T00:21:22;8.43;;;7.72;;
14096;SDS011;7125;48.106;11.544;2023-06-10T00:23:49;9.27;;;8.48;;
14096;SDS011;7125;48.106;11.544;2023-06-10T00:26:16;8.48;;;7.65;;
14096;SDS011;7125;48.106;11.544;2023-06-10T00:28:44;9.27;;;8.48;;
14096;SDS011;7125;48.106;11.544;2023-06-10T00:31:11;8.32;;;7.63;;
14096;SDS011;7125;48.106;11.544;2023-06-10T00:33:38;8.50;;;7.70;;
14096;SDS011;7125;48.106;11.544;2023-06-10T00:36:05;10.02;;;7.03;;
14096;SDS011;7125;48.106;11.544;2023-06-10T00:38:33;7.95;;;7.25;;
14096;SDS011;7125;48.106;11.544;2023-06-10T00:41:01;9.70;;;7.57;;
14096;SDS011;7125;48.106;11.544;2023-06-10T00:43:28;9.65;;;7.65;;
14096;SDS011;7125;48.106;11.544;2023-06-10T00:45:55;9.40;;;8.50;;
14096;SDS011;7125;48.106;11.544;2023-06-10T00:48:22;8.45;;;7.75;;
14096;SDS011;7125;48.106;11.544;2023-06-10T00:50:49;10.45;;;9.40;;
14096;SDS011;7125;48.106;11.544;2023-06-10T00:53:17;9.65;;;8.75;;
14096;SDS011;7125;48.106;11.544;2023-06-10T00:55:45;9.00;;;8.20;;
14096;SDS011;7125;48.106;11.544;2023-06-10T00:58:12;9.02;;;8.18;;
14096;SDS011;7125;48.106;11.544;2023-06-10T01:00:40;9.43;;;8.63;;
14096;SDS011;7125;48.106;11.544;2023-06-10T01:03:07;9.15;;;8.43;;
14096;SDS011;7125;48.106;11.544;2023-06-10T01:05:34;9.32;;;8.60;;
14096;SDS011;7125;48.106;11.544;2023-06-10T01:08:03;9.85;;;8.52;;
14096;SDS011;7125;48.106;11.544;2023-06-10T01:10:36;10.23;;;9.23;;
14096;SDS011;7125;48.106;11.544;2023-06-10T01:13:09;9.48;;;8.68;;
14096;SDS011;7125;48.106;11.544;2023-06-10T01:15:38;9.82;;;8.93;;
14096;SDS011;7125;48.106;11.544;2023-06-10T01:18:05;9.50;;;8.70;;
14096;SDS011;7125;48.106;11.544;2023-06-10T01:20:35;8.30;;;7.53;;
14096;SDS011;7125;48.106;11.544;2023-06-10T01:23:06;9.75;;;8.82;;
14096;SDS011;7125;48.106;11.544;2023-06-10T01:25:35;9.95;;;8.98;;
14096;SDS011;7125;48.106;11.544;2023-06-10T01:28:05;8.90;;;8.13;;
14096;SDS011;7125;48.106;11.544;2023-06-10T01:30:39;9.55;;;8.65;;
14096;SDS011;7125;48.106;11.544;2023-06-10T01:33:12;9.35;;;8.50;;
14096;SDS011;7125;48.106;11.544;2023-06-10T01:35:41;8.88;;;7.97;;
14096;SDS011;7125;48.106;11.544;2023-06-10T01:38:13;9.50;;;8.60;;
14096;SDS011;7125;48.106;11.544;2023-06-10T01:40:42;8.85;;;7.95;;
14096;SDS011;7125;48.106;11.544;2023-06-10T01:43:09;9.45;;;8.52;;
14096;SDS011;7125;48.106;11.544;2023-06-10T01:45:38;9.68;;;8.73;;
14096;SDS011;7125;48.106;11.544;2023-06-10T01:48:06;8.65;;;7.95;;
14096;SDS011;7125;48.106;11.544;2023-06-10T01:50:33;9.20;;;8.35;;
14096;SDS011;7125;48.106;11.544;2023-06-10T01:53:00;9.13;;;8.32;;
14096;SDS011;7125;48.106;11.544;2023-06-10T01:55:28;8.57;;;7.70;;
14096;SDS011;7125;48.106;11.544;2023-06-10T01:57:55;9.07;;;8.27;;
14096;SDS011;7125;48.106;11.544;2023-06-10T02:00:23;9.13;;;7.82;;
14096;SDS011;7125;48.106;11.544;2023-06-10T02:02:49;9.00;;;8.02;;
14096;SDS011;7125;48.106;11.544;2023-06-10T02:05:16;9.75;;;8.88;;
14096;SDS011;7125;48.106;11.544;2023-06-10T02:07:43;9.18;;;8.40;;
14096;SDS011;7125;48.106;11.544;2023-06-10T02:10:10;8.93;;;8.20;;
14096;SDS011;7125;48.106;11.544;2023-06-10T02:12:38;8.98;;;8.00;;
14096;SDS011;7125;48.106;11.544;2023-06-10T02:15:05;8.48;;;7.68;;
14096;SDS011;7125;48.106;11.544;2023-06-10T02:17:32;9.98;;;8.27;;
14096;SDS011;7125;48.106;11.544;2023-06-10T02:20:01;8.57;;;7.78;;
14096;SDS011;7125;48.106;11.544;2023-06-10T02:22:29;8.35;;;7.65;;
14096;SDS011;7125;48.106;11.544;2023-06-10T02:24:56;8.80;;;7.90;;
14096;SDS011;7125;48.106;11.544;2023-06-10T02:27:23;8.30;;;7.60;;
14096;SDS011;7125;48.106;11.544;2023-06-10T02:29:52;8.48;;;7.82;;
14096;SDS011;7125;48.106;11.544;2023-06-10T02:32:20;8.80;;;7.93;;
14096;SDS011;7125;48.106;11.544;2023-06-10T02:34:47;8.18;;;7.50;;
14096;SDS011;7125;48.106;11.544;2023-06-10T02:37:14;9.65;;;8.65;;
14096;SDS011;7125;48.106;11.544;2023-06-10T02:39:41;12.07;;;8.45;;
14096;SDS011;7125;48.106;11.544;2023-06-10T02:42:10;8.43;;;7.63;;
14096;SDS011;7125;48.106;11.544;2023-06-10T02:44:37;9.13;;;8.27;;
14096;SDS011;7125;48.106;11.544;2023-06-10T02:47:07;8.40;;;7.70;;
14096;SDS011;7125;48.106;11.544;2023-06-10T02:49:35;9.23;;;8.43;;
14096;SDS011;7125;48.106;11.544;2023-06-10T02:52:02;8.60;;;7.80;;
14096;SDS011;7125;48.106;11.544;2023-06-10T02:54:32;9.23;;;8.32;;
14096;SDS011;7125;48.106;11.544;2023-06-10T02:57:01;8.65;;;7.60;;
14096;SDS011;7125;48.106;11.544;2023-06-10T02:59:29;8.50;;;7.80;;
14096;SDS011;7125;48.106;11.544;2023-06-10T03:01:56;9.68;;;8.77;;
14096;SDS011;7125;48.106;11.544;2023-06-10T03:04:26;8.27;;;7.57;;
14096;SDS011;7125;48.106;11.544;2023-06-10T03:07:00;8.98;;;8.15;;
14096;SDS011;7125;48.106;11.544;2023-06-10T03:09:31;9.97;;;9.10;;
14096;SDS011;7125;48.106;11.544;2023-06-10T03:11:59;8.52;;;7.72;;
14096;SDS011;7125;48.106;11.544;2023-06-10T03:14:30;8.95;;;8.07;;
14096;SDS011;7125;48.106;11.544;2023-06-10T03:16:58;9.23;;;8.40;;
14096;SDS011;7125;48.106;11.544;2023-06-10T03:19:27;8.90;;;8.13;;
14096;SDS011;7125;48.106;11.544;2023-06-10T03:21:57;8.93;;;8.23;;
14096;SDS011;7125;48.106;11.544;2023-06-10T03:24:33;9.23;;;8.38;;
14096;SDS011;7125;48.106;11.544;2023-06-10T03:27:04;8.82;;;7.82;;
14096;SDS011;7125;48.106;11.544;2023-06-10T03:29:32;9.35;;;8.45;;
14096;SDS011;7125;48.106;11.544;2023-06-10T03:31:59;9.73;;;8.80;;
14096;SDS011;7125;48.106;11.544;2023-06-10T03:34:28;8.38;;;7.68;;
14096;SDS011;7125;48.106;11.544;2023-06-10T03:36:56;9.07;;;8.20;;
14096;SDS011;7125;48.106;11.544;2023-06-10T03:39:22;8.98;;;8.18;;
14096;SDS011;7125;48.106;11.544;2023-06-10T03:41:50;9.53;;;8.57;;
14096;SDS011;7125;48.106;11.544;2023-06-10T03:44:17;8.23;;;7.43;;
14096;SDS011;7125;48.106;11.544;2023-06-10T03:46:44;9.43;;;8.63;;
14096;SDS011;7125;48.106;11.544;2023-06-10T03:49:12;8.63;;;7.90;;
14096;SDS011;7125;48.106;11.544;2023-06-10T03:51:43;9.63;;;8.73;;
14096;SDS011;7125;48.106;11.544;2023-06-10T03:54:10;11.27;;;9.00;;
14096;SDS011;7125;48.106;11.544;2023-06-10T03:56:37;10.00;;;7.13;;
14096;SDS011;7125;48.106;11.544;2023-06-10T03:59:04;9.33;;;8.43;;
14096;SDS011;7125;48.106;11.544;2023-06-10T04:01:33;9.23;;;8.13;;
14096;SDS011;7125;48.106;11.544;2023-06-10T04:04:02;8.87;;;8.00;;
14096;SDS011;7125;48.106;11.544;2023-06-10T04:06:33;8.33;;;7.70;;
14096;SDS011;7125;48.106;11.544;2023-06-10T04:09:01;10.37;;;8.30;;
14096;SDS011;7125;48.106;11.544;2023-06-10T04:11:28;9.23;;;8.50;;
14096;SDS011;7125;48.106;11.544;2023-06-10T04:13:57;8.30;;;7.60;;
14096;SDS011;7125;48.106;11.544;2023-06-10T04:16:25;9.15;;;8.35;;
14096;SDS011;7125;48.106;11.544;2023-06-10T04:18:52;8.73;;;8.02;;
14096;SDS011;7125;48.106;11.544;2023-06-10T04:21:20;9.27;;;8.50;;
14096;SDS011;7125;48.106;11.544;2023-06-10T04:23:47;9.07;;;8.27;;
14096;SDS011;7125;48.106;11.544;2023-06-10T04:26:16;9.45;;;8.60;;
14096;SDS011;7125;48.106;11.544;2023-06-10T04:28:43;9.00;;;8.30;;
14096;SDS011;7125;48.106;11.544;2023-06-10T04:31:10;10.45;;;9.48;;
14096;SDS011;7125;48.106;11.544;2023-06-10T04:33:37;8.23;;;7.50;;
14096;SDS011;7125;48.106;11.544;2023-06-10T04:36:05;8.95;;;8.15;;
14096;SDS011;7125;48.106;11.544;2023-06-10T04:38:33;9.43;;;8.48;;
14096;SDS011;7125;48.106;11.544;2023-06-10T04:41:00;8.60;;;7.80;;
14096;SDS011;7125;48.106;11.544;2023-06-10T04:43:32;9.27;;;8.45;;
14096;SDS011;7125;48.106;11.544;2023-06-10T04:46:00;8.65;;;7.85;;
14096;SDS011;7125;48.106;11.544;2023-06-10T04:48:28;9.20;;;8.48;;
14096;SDS011;7125;48.106;11.544;2023-06-10T04:50:55;9.02;;;8.23;;
14096;SDS011;7125;48.106;11.544;2023-06-10T04:53:22;10.00;;;9.05;;
14096;SDS011;7125;48.106;11.544;2023-06-10T04:55:49;9.98;;;9.07;;
14096;SDS011;7125;48.106;11.544;2023-06-10T04:58:16;11.65;;;10.60;;
14096;SDS011;7125;48.106;11.544;2023-06-10T05:00:44;11.32;;;10.23;;
14096;SDS011;7125;48.106;11.544;2023-06-10T05:03:11;10.50;;;9.57;;
14096;SDS011;7125;48.106;11.544;2023-06-10T05:05:38;10.63;;;8.20;;
14096;SDS011;7125;48.106;11.544;2023-06-10T05:08:05;11.70;;;10.60;;
14096;SDS011;7125;48.106;11.544;2023-06-10T05:10:33;12.10;;;11.10;;
14096;SDS011;7125;48.106;11.544;2023-06-10T05:13:00;10.43;;;9.45;;
14096;SDS011;7125;48.106;11.544;2023-06-10T05:15:28;10.50;;;9.50;;
14096;SDS011;7125;48.106;11.544;2023-06-10T05:17:57;11.10;;;10.10;;
14096;SDS011;7125;48.106;11.544;2023-06-10T05:20:24;11.48;;;10.40;;
14096;SDS011;7125;48.106;11.544;2023-06-10T05:22:51;11.93;;;10.85;;
14096;SDS011;7125;48.106;11.544;2023-06-10T05:25:18;10.80;;;9.70;;
14096;SDS011;7125;48.106;11.544;2023-06-10T05:27:45;12.63;;;10.05;;
14096;SDS011;7125;48.106;11.544;2023-06-10T05:30:12;10.50;;;9.40;;
14096;SDS011;7125;48.106;11.544;2023-06-10T05:32:40;12.25;;;10.95;;
14096;SDS011;7125;48.106;11.544;2023-06-10T05:35:08;12.32;;;10.77;;
14096;SDS011;7125;48.106;11.544;2023-06-10T05:37:35;12.23;;;11.10;;
14096;SDS011;7125;48.106;11.544;2023-06-10T05:40:02;13.48;;;11.13;;
14096;SDS011;7125;48.106;11.544;2023-06-10T05:42:30;15.43;;;11.15;;
14096;SDS011;7125;48.106;11.544;2023-06-10T05:44:57;10.90;;;9.80;;
14096;SDS011;7125;48.106;11.544;2023-06-10T05:47:24;12.35;;;11.15;;
14096;SDS011;7125;48.106;11.544;2023-06-10T05:49:51;12.63;;;11.52;;
14096;SDS011;7125;48.106;11.544;2023-06-10T05:52:19;12.48;;;11.23;;
14096;SDS011;7125;48.106;11.544;2023-06-10T05:54:46;13.75;;;12.32;;
14096;SDS011;7125;48.106;11.544;2023-06-10T05:57:13;11.27;;;10.23;;
14096;SDS011;7125;48.106;11.544;2023-06-10T05:59:40;11.52;;;10.52;;
14096;SDS011;7125;48.106;11.544;2023-06-10T06:02:07;12.30;;;11.20;;
14096;SDS011;7125;48.106;11.544;2023-06-10T06:04:34;11.68;;;10.63;;
14096;SDS011;7125;48.106;11.544;2023-06-10T06:07:01;12.60;;;11.38;;
14096;SDS011;7125;48.106;11.544;2023-06-10T06:09:29;11.27;;;10.27;;
14096;SDS011;7125;48.106;11.544;2023-06-10T06:11:56;11.68;;;10.68;;
14096;SDS011;7125;48.106;11.544;2023-06-10T06:14:23;11.95;;;10.75;;
14096;SDS011;7125;48.106;11.544;2023-06-10T06:16:50;10.07;;;9.23;;
14096;SDS011;7125;48.106;11.544;2023-06-10T06:19:17;11.15;;;10.15;;
14096;SDS011;7125;48.106;11.544;2023-06-10T06:21:43;11.50;;;10.38;;
14096;SDS011;7125;48.106;11.544;2023-06-10T06:24:10;10.82;;;9.82;;
14096;SDS011;7125;48.106;11.544;2023-06-10T06:26:39;12.32;;;11.23;;
14096;SDS011;7125;48.106;11.544;2023-06-10T06:29:05;11.55;;;10.45;;
14096;SDS011;7125;48.106;11.544;2023-06-10T06:31:32;10.60;;;9.60;;
14096;SDS011;7125;48.106;11.544;2023-06-10T06:33:59;10.43;;;9.52;;
14096;SDS011;7125;48.106;11.544;2023-06-10T06:36:26;9.55;;;8.55;;
14096;SDS011;7125;48.106;11.544;2023-06-10T06:38:53;9.50;;;8.50;;
14096;SDS011;7125;48.106;11.544;2023-06-10T06:41:21;9.32;;;8.45;;
14096;SDS011;7125;48.106;11.544;2023-06-10T06:43:50;9.32;;;8.60;;
14096;SDS011;7125;48.106;11.544;2023-06-10T06:46:23;10.00;;;9.02;;
14096;SDS011;7125;48.106;11.544;2023-06-10T06:48:50;11.73;;;8.68;;
14096;SDS011;7125;48.106;11.544;2023-06-10T06:51:17;7.97;;;7.25;;
14096;SDS011;7125;48.106;11.544;2023-06-10T06:53:44;9.82;;;8.93;;
14096;SDS011;7125;48.106;11.544;2023-06-10T06:56:11;9.32;;;8.38;;
14096;SDS011;7125;48.106;11.544;2023-06-10T06:58:38;9.77;;;8.88;;
14096;SDS011;7125;48.106;11.544;2023-06-10T07:01:06;9.73;;;8.23;;
14096;SDS011;7125;48.106;11.544;2023-06-10T07:03:33;9.23;;;7.70;;
14096;SDS011;7125;48.106;11.544;2023-06-10T07:06:00;8.25;;;7.45;;
14096;SDS011;7125;48.106;11.544;2023-06-10T07:08:27;8.52;;;7.72;;
14096;SDS011;7125;48.106;11.544;2023-06-10T07:10:54;8.80;;;8.00;;
14096;SDS011;7125;48.106;11.544;2023-06-10T07:13:21;9.65;;;8.48;;
14096;SDS011;7125;48.106;11.544;2023-06-10T07:15:48;8.77;;;8.07;;
14096;SDS011;7125;48.106;11.544;2023-06-10T07:18:16;9.10;;;8.20;;
14096;SDS011;7125;48.106;11.544;2023-06-10T07:20:43;8.65;;;7.70;;
14096;SDS011;7125;48.106;11.544;2023-06-10T07:23:10;9.05;;;8.10;;
14096;SDS011;7125;48.106;11.544;2023-06-10T07:25:37;10.23;;;7.70;;
14096;SDS011;7125;48.106;11.544;2023-06-10T07:28:04;9.25;;;8.02;;
14096;SDS011;7125;48.106;11.544;2023-06-10T07:30:31;8.07;;;7.38;;
14096;SDS011;7125;48.106;11.544;2023-06-10T07:32:58;8.13;;;7.43;;
14096;SDS011;7125;48.106;11.544;2023-06-10T07:35:26;8.68;;;7.63;;
14096;SDS011;7125;48.106;11.544;2023-06-10T07:37:53;9.27;;;8.35;;
14096;SDS011;7125;48.106;11.544;2023-06-10T07:40:20;8.15;;;7.53;;
14096;SDS011;7125;48.106;11.544;2023-06-10T07:42:47;8.73;;;7.93;;
14096;SDS011;7125;48.106;11.544;2023-06-10T07:45:13;8.60;;;7.75;;
14096;SDS011;7125;48.106;11.544;2023-06-10T07:47:40;8.02;;;7.32;;
14096;SDS011;7125;48.106;11.544;2023-06-10T07:50:09;8.00;;;7.40;;
14096;SDS011;7125;48.106;11.544;2023-06-10T07:52:38;8.55;;;7.85;;
14096;SDS011;7125;48.106;11.544;2023-06-10T07:55:05;8.30;;;6.80;;
14096;SDS011;7125;48.106;11.544;2023-06-10T07:57:33;8.13;;;7.20;;
14096;SDS011;7125;48.106;11.544;2023-06-10T08:00:01;6.03;;;5.53;;
14096;SDS011;7125;48.106;11.544;2023-06-10T08:02:37;6.43;;;5.88;;
14096;SDS011;7125;48.106;11.544;2023-06-10T08:05:04;6.30;;;5.80;;
14096;SDS011;7125;48.106;11.544;2023-06-10T08:07:32;6.72;;;6.22;;
14096;SDS011;7125;48.106;11.544;2023-06-10T08:10:00;7.35;;;6.75;;
14096;SDS011;7125;48.106;11.544;2023-06-10T08:12:27;6.47;;;5.88;;
14096;SDS011;7125;48.106;11.544;2023-06-10T08:14:54;5.68;;;5.18;;
14096;SDS011;7125;48.106;11.544;2023-06-10T08:17:21;6.25;;;5.53;;
14096;SDS011;7125;48.106;11.544;2023-06-10T08:19:48;7.32;;;6.65;;
14096;SDS011;7125;48.106;11.544;2023-06-10T08:22:15;6.40;;;5.90;;
14096;SDS011;7125;48.106;11.544;2023-06-10T08:24:42;6.38;;;5.78;;
14096;SDS011;7125;48.106;11.544;2023-06-10T08:27:10;6.82;;;6.22;;
14096;SDS011;7125;48.106;11.544;2023-06-10T08:29:37;7.43;;;6.82;;
14096;SDS011;7125;48.106;11.544;2023-06-10T08:32:05;7.53;;;6.68;;
14096;SDS011;7125;48.106;11.544;2023-06-10T08:34:33;6.55;;;5.95;;
14096;SDS011;7125;48.106;11.544;2023-06-10T08:37:01;6.70;;;6.07;;
14096;SDS011;7125;48.106;11.544;2023-06-10T08:39:28;7.30;;;6.32;;
14096;SDS011;7125;48.106;11.544;2023-06-10T08:42:00;6.75;;;5.93;;
14096;SDS011;7125;48.106;11.544;2023-06-10T08:44:35;6.53;;;5.88;;
14096;SDS011;7125;48.106;11.544;2023-06-10T08:47:05;5.50;;;5.00;;
14096;SDS011;7125;48.106;11.544;2023-06-10T08:49:37;6.38;;;5.78;;
14096;SDS011;7125;48.106;11.544;2023-06-10T08:52:07;6.07;;;5.53;;
14096;SDS011;7125;48.106;11.544;2023-06-10T08:54:40;6.85;;;6.15;;
14096;SDS011;7125;48.106;11.544;2023-06-10T08:57:09;6.63;;;6.03;;
14096;SDS011;7125;48.106;11.544;2023-06-10T08:59:38;6.05;;;5.55;;
14096;SDS011;7125;48.106;11.544;2023-06-10T09:02:06;6.78;;;6.18;;
14096;SDS011;7125;48.106;11.544;2023-06-10T09:04:37;5.97;;;5.47;;
14096;SDS011;7125;48.106;11.544;2023-06-10T09:07:05;5.90;;;5.40;;
14096;SDS011;7125;48.106;11.544;2023-06-10T09:09:32;5.78;;;5.28;;
14096;SDS011;7125;48.106;11.544;2023-06-10T09:12:01;5.97;;;5.38;;
14096;SDS011;7125;48.106;11.544;2023-06-10T09:14:28;7.28;;;6.20;;
14096;SDS011;7125;48.106;11.544;2023-06-10T09:16:57;6.25;;;5.63;;
14096;SDS011;7125;48.106;11.544;2023-06-10T09:19:24;6.80;;;6.20;;
14096;SDS011;7125;48.106;11.544;2023-06-10T09:21:53;6.45;;;5.85;;
14096;SDS011;7125;48.106;11.544;2023-06-10T09:24:20;5.72;;;5.22;;
14096;SDS011;7125;48.106;11.544;2023-06-10T09:26:48;5.10;;;4.70;;
14096;SDS011;7125;48.106;11.544;2023-06-10T09:29:16;6.03;;;5.47;;
14096;SDS011;7125;48.106;11.544;2023-06-10T09:31:43;6.35;;;5.80;;
14096;SDS011;7125;48.106;11.544;2023-06-10T09:34:12;5.28;;;4.88;;
14096;SDS011;7125;48.106;11.544;2023-06-10T09:36:42;5.18;;;4.78;;
14096;SDS011;7125;48.106;11.544;2023-06-10T09:39:13;5.22;;;4.72;;
14096;SDS011;7125;48.106;11.544;2023-06-10T09:41:42;5.75;;;5.13;;
14096;SDS011;7125;48.106;11.544;2023-06-10T09:44:11;4.88;;;4.47;;
14096;SDS011;7125;48.106;11.544;2023-06-10T09:46:40;5.40;;;4.90;;
14096;SDS011;7125;48.106;11.544;2023-06-10T09:49:07;4.90;;;4.50;;
14096;SDS011;7125;48.106;11.544;2023-06-10T09:51:36;4.93;;;4.53;;
14096;SDS011;7125;48.106;11.544;2023-06-10T09:54:03;5.00;;;4.60;;
14096;SDS011;7125;48.106;11.544;2023-06-10T09:56:33;4.65;;;4.25;;
14096;SDS011;7125;48.106;11.544;2023-06-10T09:59:01;6.03;;;5.47;;
14096;SDS011;7125;48.106;11.544;2023-06-10T10:01:30;5.15;;;4.75;;
14096;SDS011;7125;48.106;11.544;2023-06-10T10:03:58;5.55;;;5.05;;
14096;SDS011;7125;48.106;11.544;2023-06-10T10:06:25;6.20;;;4.32;;
14096;SDS011;7125;48.106;11.544;2023-06-10T10:08:55;5.13;;;4.65;;
14096;SDS011;7125;48.106;11.544;2023-06-10T10:11:22;4.72;;;4.32;;
14096;SDS011;7125;48.106;11.544;2023-06-10T10:13:51;4.43;;;4.13;;
14096;SDS011;7125;48.106;11.544;2023-06-10T10:16:19;3.97;;;3.67;;
14096;SDS011;7125;48.106;11.544;2023-06-10T10:18:49;5.57;;;4.72;;
14096;SDS011;7125;48.106;11.544;2023-06-10T10:21:21;4.38;;;4.07;;
14096;SDS011;7125;48.106;11.544;2023-06-10T10:23:52;4.93;;;4.53;;
14096;SDS011;7125;48.106;11.544;2023-06-10T10:26:27;5.20;;;4.80;;
14096;SDS011;7125;48.106;11.544;2023-06-10T10:28:58;7.60;;;4.75;;
14096;SDS011;7125;48.106;11.544;2023-06-10T10:31:34;4.70;;;4.28;;
14096;SDS011;7125;48.106;11.544;2023-06-10T10:34:02;4.10;;;3.80;;
14096;SDS011;7125;48.106;11.544;2023-06-10T10:36:33;6.00;;;4.30;;
14096;SDS011;7125;48.106;11.544;2023-06-10T10:39:02;4.88;;;4.32;;
14096;SDS011;7125;48.106;11.544;2023-06-10T10:41:31;4.65;;;4.30;;
14096;SDS011;7125;48.106;11.544;2023-06-10T10:44:00;4.00;;;3.70;;
14096;SDS011;7125;48.106;11.544;2023-06-10T10:46:30;4.28;;;3.97;;
14096;SDS011;7125;48.106;11.544;2023-06-10T10:49:07;4.05;;;3.55;;
14096;SDS011;7125;48.106;11.544;2023-06-10T10:51:35;3.92;;;3.63;;
14096;SDS011;7125;48.106;11.544;2023-06-10T10:54:13;4.40;;;4.00;;
14096;SDS011;7125;48.106;11.544;2023-06-10T10:59:51;4.30;;;4.00;;
14096;SDS011;7125;48.106;11.544;2023-06-10T11:02:33;6.40;;;4.05;;
14096;SDS011;7125;48.106;11.544;2023-06-10T11:05:03;4.20;;;3.90;;
14096;SDS011;7125;48.106;11.544;2023-06-10T11:07:31;4.60;;;4.30;;
14096;SDS011;7125;48.106;11.544;2023-06-10T11:10:01;3.95;;;3.65;;
14096;SDS011;7125;48.106;11.544;2023-06-10T11:12:47;4.40;;;4.10;;
14096;SDS011;7125;48.106;11.544;2023-06-10T11:15:18;4.20;;;3.90;;
14096;SDS011;7125;48.106;11.544;2023-06-10T11:23:33;3.83;;;3.53;;
14096;SDS011;7125;48.106;11.544;2023-06-10T11:26:13;3.72;;;3.42;;
14096;SDS011;7125;48.106;11.544;2023-06-10T11:29:02;3.63;;;3.42;;
14096;SDS011;7125;48.106;11.544;2023-06-10T11:31:38;4.15;;;3.85;;
14096;SDS011;7125;48.106;11.544;2023-06-10T11:34:10;4.03;;;3.72;;
14096;SDS011;7125;48.106;11.544;2023-06-10T11:36:39;2.90;;;2.70;;
14096;SDS011;7125;48.106;11.544;2023-06-10T11:39:10;3.97;;;3.58;;
14096;SDS011;7125;48.106;11.544;2023-06-10T11:41:39;3.45;;;3.13;;
14096;SDS011;7125;48.106;11.544;2023-06-10T11:44:10;3.53;;;3.22;;
14096;SDS011;7125;48.106;11.544;2023-06-10T11:46:38;4.13;;;3.83;;
14096;SDS011;7125;48.106;11.544;2023-06-10T11:49:05;4.18;;;3.72;;
14096;SDS011;7125;48.106;11.544;2023-06-10T11:51:33;4.53;;;3.22;;
14096;SDS011;7125;48.106;11.544;2023-06-10T11:54:01;3.55;;;3.25;;
14096;SDS011;7125;48.106;11.544;2023-06-10T11:56:29;3.22;;;3.03;;
14096;SDS011;7125;48.106;11.544;2023-06-10T11:58:59;3.88;;;3.58;;
14096;SDS011;7125;48.106;11.544;2023-06-10T12:01:31;3.53;;;3.33;;
14096;SDS011;7125;48.106;11.544;2023-06-10T12:03:59;3.83;;;3.30;;
14096;SDS011;7125;48.106;11.544;2023-06-10T12:06:29;3.38;;;3.10;;
14096;SDS011;7125;48.106;11.544;2023-06-10T12:09:04;2.92;;;2.72;;
14096;SDS011;7125;48.106;11.544;2023-06-10T12:11:31;3.05;;;2.85;;
14096;SDS011;7125;48.106;11.544;2023-06-10T12:14:00;3.45;;;3.20;;
14096;SDS011;7125;48.106;11.544;2023-06-10T12:16:29;2.70;;;2.50;;
14096;SDS011;7125;48.106;11.544;2023-06-10T12:19:00;3.08;;;2.88;;
14096;SDS011;7125;48.106;11.544;2023-06-10T12:21:28;3.40;;;3.20;;
14096;SDS011;7125;48.106;11.544;2023-06-10T12:24:00;2.90;;;2.70;;
14096;SDS011;7125;48.106;11.544;2023-06-10T12:26:35;3.78;;;3.38;;
14096;SDS011;7125;48.106;11.544;2023-06-10T12:29:13;3.38;;;3.17;;
14096;SDS011;7125;48.106;11.544;2023-06-10T12:31:58;3.17;;;2.88;;
14096;SDS011;7125;48.106;11.544;2023-06-10T12:34:30;2.58;;;2.45;;
14096;SDS011;7125;48.106;11.544;2023-06-10T12:37:02;3.75;;;3.08;;
14096;SDS011;7125;48.106;11.544;2023-06-10T12:39:31;2.83;;;2.63;;
14096;SDS011;7125;48.106;11.544;2023-06-10T12:41:58;2.95;;;2.75;;
14096;SDS011;7125;48.106;11.544;2023-06-10T12:44:30;2.78;;;2.58;;
14096;SDS011;7125;48.106;11.544;2023-06-10T12:46:59;2.65;;;2.53;;
14096;SDS011;7125;48.106;11.544;2023-06-10T12:49:26;4.47;;;3.00;;
14096;SDS011;7125;48.106;11.544;2023-06-10T12:51:54;2.95;;;2.75;;
14096;SDS011;7125;48.106;11.544;2023-06-10T12:54:21;2.40;;;2.30;;
14096;SDS011;7125;48.106;11.544;2023-06-10T12:56:48;2.78;;;2.58;;
14096;SDS011;7125;48.106;11.544;2023-06-10T12:59:15;2.72;;;2.53;;
14096;SDS011;7125;48.106;11.544;2023-06-10T13:01:44;3.00;;;2.80;;
14096;SDS011;7125;48.106;11.544;2023-06-10T13:04:16;2.70;;;2.50;;
14096;SDS011;7125;48.106;11.544;2023-06-10T13:06:46;2.22;;;2.13;;
14096;SDS011;7125;48.106;11.544;2023-06-10T13:09:14;3.08;;;2.72;;
14096;SDS011;7125;48.106;11.544;2023-06-10T13:11:41;3.33;;;3.03;;
14096;SDS011;7125;48.106;11.544;2023-06-10T13:14:08;3.88;;;3.58;;
14096;SDS011;7125;48.106;11.544;2023-06-10T13:16:36;4.63;;;3.95;;
14096;SDS011;7125;48.106;11.544;2023-06-10T13:19:05;5.53;;;3.28;;
14096;SDS011;7125;48.106;11.544;2023-06-10T13:21:32;3.70;;;3.40;;
14096;SDS011;7125;48.106;11.544;2023-06-10T13:24:00;5.05;;;4.00;;
14096;SDS011;7125;48.106;11.544;2023-06-10T13:26:27;5.95;;;3.70;;
14096;SDS011;7125;48.106;11.544;2023-06-10T13:28:54;4.57;;;4.18;;
14096;SDS011;7125;48.106;11.544;2023-06-10T13:31:21;5.00;;;4.60;;
14096;SDS011;7125;48.106;11.544;2023-06-10T13:33:48;5.03;;;4.63;;
14096;SDS011;7125;48.106;11.544;2023-06-10T13:36:16;4.43;;;4.10;;
14096;SDS011;7125;48.106;11.544;2023-06-10T13:38:43;4.20;;;3.90;;
14096;SDS011;7125;48.106;11.544;2023-06-10T13:41:10;3.97;;;3.67;;
14096;SDS011;7125;48.106;11.544;2023-06-10T13:43:37;4.30;;;4.00;;
14096;SDS011;7125;48.106;11.544;2023-06-10T13:46:05;5.05;;;4.05;;
14096;SDS011;7125;48.106;11.544;2023-06-10T13:48:33;4.15;;;3.85;;
14096;SDS011;7125;48.106;11.544;2023-06-10T13:51:12;3.78;;;3.47;;
14096;SDS011;7125;48.106;11.544;2023-06-10T13:54:00;3.72;;;3.47;;
14096;SDS011;7125;48.106;11.544;2023-06-10T13:56:41;3.90;;;3.53;;
14096;SDS011;7125;48.106;11.544;2023-06-10T13:59:08;3.35;;;3.15;;
14096;SDS011;7125;48.106;11.544;2023-06-10T14:01:35;3.85;;;3.55;;
14096;SDS011;7125;48.106;11.544;2023-06-10T14:04:02;3.65;;;3.22;;
14096;SDS011;7125;48.106;11.544;2023-06-10T14:06:29;3.63;;;3.33;;
14096;SDS011;7125;48.106;11.544;2023-06-10T14:08:59;4.07;;;3.78;;
14096;SDS011;7125;48.106;11.544;2023-06-10T14:11:26;5.63;;;3.72;;
14096;SDS011;7125;48.106;11.544;2023-06-10T14:13:53;4.38;;;4.07;;
14096;SDS011;7125;48.106;11.544;2023-06-10T14:16:21;3.58;;;2.97;;
14096;SDS011;7125;48.106;11.544;2023-06-10T14:18:48;3.10;;;2.90;;
14096;SDS011;7125;48.106;11.544;2023-06-10T14:21:15;3.35;;;3.00;;
14096;SDS011;7125;48.106;11.544;2023-06-10T14:23:43;3.10;;;2.90;;
14096;SDS011;7125;48.106;11.544;2023-06-10T14:26:12;3.35;;;3.15;;
14096;SDS011;7125;48.106;11.544;2023-06-10T14:28:39;3.08;;;2.88;;
14096;SDS011;7125;48.106;11.544;2023-06-10T14:31:05;2.95;;;2.75;;
14096;SDS011;7125;48.106;11.544;2023-06-10T14:33:33;3.55;;;3.15;;
14096;SDS011;7125;48.106;11.544;2023-06-10T14:36:00;2.85;;;2.65;;
14096;SDS011;7125;48.106;11.544;2023-06-10T14:38:30;2.85;;;2.65;;
14096;SDS011;7125;48.106;11.544;2023-06-10T14:40:57;3.47;;;3.28;;
14096;SDS011;7125;48.106;11.544;2023-06-10T14:43:27;5.43;;;3.80;;
14096;SDS011;7125;48.106;11.544;2023-06-10T14:45:54;4.53;;;3.05;;
14096;SDS011;7125;48.106;11.544;2023-06-10T14:48:22;3.53;;;3.33;;
14096;SDS011;7125;48.106;11.544;2023-06-10T14:50:49;3.50;;;3.22;;
14096;SDS011;7125;48.106;11.544;2023-06-10T14:53:16;2.80;;;2.60;;
14096;SDS011;7125;48.106;11.544;2023-06-10T14:55:44;3.95;;;3.40;;
14096;SDS011;7125;48.106;11.544;2023-06-10T14:58:11;2.42;;;2.33;;
14096;SDS011;7125;48.106;11.544;2023-06-10T15:00:42;2.85;;;2.75;;
14096;SDS011;7125;48.106;11.544;2023-06-10T15:03:09;2.88;;;2.67;;